Bunker Hill, IN (46914)

10:36 PM EDT on May 29, 2017 (GMT -0400)
McGrawsville Feed and Grain Co., Inc. | | Change Station
Active Advisory: Flood Warning Active Notice: Public Information Statement

Elev 817 ft 40.63 °N, 86.01 °W | Updated 8 seconds ago

Overcast
Overcast
64.6 °F
Feels Like 64.6 °F
N
0.0
Wind Variable Wind from WNW

Today
High -- | Low -- °F
--% Chance of Precip.
Yesterday
High -- | Low -- °F
Precip. -- in
Pressure 29.89 in
Visibility 9.0 miles
Clouds Scattered Clouds 6000 ft
Mostly Cloudy 8500 ft
Overcast 11000 ft
Dew Point 54 °F
Humidity 69%
Rainfall 0.00 in
Snow Depth Not available.
6:16 AM 9:07 PM
Waxing Crescent, 25% visible
SPECI KGUS 300216Z 26005KT 9SM -RA SCT060 BKN085 OVC110 18/13 A2989 RMK AO2A PRESRR SLP121
Pressure 29.89 in
Visibility 9.0 miles
Clouds Scattered Clouds 6000 ft
Mostly Cloudy 8500 ft
Overcast 11000 ft
Dew Point 54 °F
Humidity 69%
Rainfall 0.00 in
Snow Depth Not available.
6:16 AM 9:07 PM
Waxing Crescent, 25% visible
SPECI KGUS 300216Z 26005KT 9SM -RA SCT060 BKN085 OVC110 18/13 A2989 RMK AO2A PRESRR SLP121

Get Your Daily Forecast Email!

Thanks for signing up!

Be on the lookout for a verification email in your inbox.

You'll start receiving severe weather alerts in your inbox..

×

10-Day Weather Forecast

Almanac

Astronomy

May. 29, 2017 Rise Set
Actual Time
Civil Twilight
Nautical Twilight
Astronomical Twilight
Moon
Length of Visible Light
Length of Day
Tomorrow will be .
, % of the Moon is Illuminated

Today's Extremes

State Highs State Lows

Community

WunderPhotos

Category 6

Welcome to Category 6. This is the collective home for Weather Underground's featured writeups by Dr. Jeff Masters (right), Bob Henson (left), Chris Burt, and other regular contributors.

Nearby

Air Quality

  Air Quality AQ Index Pollutant
Not available.

Snow Depth

Station Depth Elevation

Earthquake Activity

City Distance Mag. Time & Date
Minimum magnitude displayed is 2.5.

Coastal Water Temperatures

Place Temperature

Stations

Nearby Weather Stations

Station Location Temp. Windchill Dew Point Humidity Wind Precip. Elev Updated Type
                   

Watches & Warnings

Flood Warning
Issued: 9:46 PM EDT May. 29, 2017 – National Weather Service

the Flood Warning has been extended for
the Eel River at North Manchester
* until late Tuesday night.
* At 9 PM Monday the stage was 9.6 feet and falling.
* Minor flooding is occurring and minor flooding is forecast.
* Flood stage is 9.0 feet.
* Forecast... the river will fall below the 9.0 foot flood stage
around 5 am Tuesday may 30.
* At 10.0 feet... flood waters near lumber company and trailer court
on South Mill street.
* This crest compares to a previous crest of 9.1 feet which occurred
on Apr 12 2013.


Lat... Lon 4076 8635 4097 8592 4102 8577 4099 8577
      4087 8599 4072 8631